createdAt,value
2022-09-11T00:02:07.791Z,74.70
2022-09-11T00:04:34.443Z,74.70
2022-09-11T00:07:01.074Z,74.50
2022-09-11T00:09:27.714Z,74.60
2022-09-11T00:11:54.355Z,74.70
2022-09-11T00:14:21.013Z,74.50
2022-09-11T00:16:47.657Z,74.50
2022-09-11T00:19:18.913Z,74.50
2022-09-11T00:21:46.251Z,74.50
2022-09-11T00:24:13.125Z,74.50
2022-09-11T00:26:41.122Z,74.50
2022-09-11T00:29:08.207Z,74.50
2022-09-11T00:31:35.015Z,74.50
2022-09-11T00:34:01.663Z,74.50
2022-09-11T00:36:29.610Z,74.50
2022-09-11T00:38:56.481Z,74.60
2022-09-11T00:41:25.679Z,74.60
2022-09-11T00:43:55.407Z,74.50
2022-09-11T00:46:23.686Z,74.50
2022-09-11T00:48:50.527Z,74.50
2022-09-11T00:51:19.145Z,74.40
2022-09-11T00:53:47.122Z,74.50
2022-09-11T00:56:13.802Z,74.40
2022-09-11T00:58:42.784Z,74.30
2022-09-11T01:01:10.612Z,74.30
2022-09-11T01:03:37.266Z,75.10
2022-09-11T01:06:04.467Z,74.40
2022-09-11T01:08:33.426Z,74.30
2022-09-11T01:11:10.188Z,74.30
2022-09-11T01:13:56.919Z,74.30
2022-09-11T01:16:38.492Z,74.30
2022-09-11T01:19:08.990Z,74.30
2022-09-11T01:21:42.570Z,74.30
2022-09-11T01:24:19.404Z,74.30
2022-09-11T01:27:04.047Z,74.30
2022-09-11T01:29:42.604Z,74.30
2022-09-11T01:32:14.959Z,74.30
2022-09-11T01:34:48.990Z,74.30
2022-09-11T01:37:24.782Z,74.30
2022-09-11T01:39:56.138Z,74.30
2022-09-11T01:42:23.323Z,74.30
2022-09-11T01:44:51.820Z,74.30
2022-09-11T01:47:19.457Z,74.30
2022-09-11T01:49:49.030Z,74.20
2022-09-11T01:52:18.113Z,74.10
2022-09-11T01:54:47.110Z,74.10
2022-09-11T01:57:21.806Z,74.10
2022-09-11T01:59:51.826Z,74.10
2022-09-11T02:02:22.449Z,74.70
2022-09-11T02:04:52.019Z,74.10
2022-09-11T02:07:39.685Z,74.10
2022-09-11T02:10:08.583Z,74.00
2022-09-11T02:12:43.995Z,74.10
2022-09-11T02:15:13.566Z,73.90
2022-09-11T02:17:43.770Z,74.10
2022-09-11T02:20:11.061Z,74.00
2022-09-11T02:22:37.816Z,74.10
2022-09-11T02:25:04.587Z,74.10
2022-09-11T02:27:34.306Z,74.20
2022-09-11T02:30:01.062Z,74.20
2022-09-11T02:32:27.902Z,74.10
2022-09-11T02:34:55.474Z,74.20
2022-09-11T02:37:49.343Z,74.10
2022-09-11T02:40:16.019Z,74.10
2022-09-11T02:42:45.424Z,74.00
2022-09-11T02:45:12.223Z,74.00
2022-09-11T02:47:45.037Z,74.00
2022-09-11T02:50:24.126Z,74.00
2022-09-11T02:53:09.696Z,74.00
2022-09-11T02:55:51.548Z,74.00
2022-09-11T02:58:22.036Z,74.00
2022-09-11T03:00:48.719Z,74.00
2022-09-11T03:03:15.536Z,74.00
2022-09-11T03:05:42.463Z,73.90
2022-09-11T03:08:09.490Z,73.90
2022-09-11T03:10:36.098Z,74.00
2022-09-11T03:13:02.726Z,74.00
2022-09-11T03:15:29.384Z,74.00
2022-09-11T03:17:57.496Z,74.00
2022-09-11T03:20:24.143Z,74.00
2022-09-11T03:22:50.774Z,74.00
2022-09-11T03:25:17.830Z,73.90
2022-09-11T03:27:44.427Z,74.00
2022-09-11T03:30:11.362Z,73.90
2022-09-11T03:32:37.991Z,73.90
2022-09-11T03:35:04.737Z,73.90
2022-09-11T03:37:31.342Z,74.10
2022-09-11T03:39:58.094Z,74.10
2022-09-11T03:42:24.713Z,74.00
2022-09-11T03:44:51.418Z,74.10
2022-09-11T03:47:20.394Z,74.10
2022-09-11T03:49:47.069Z,74.00
2022-09-11T03:52:13.857Z,74.10
2022-09-11T03:54:40.457Z,74.00
2022-09-11T03:57:07.133Z,74.10
2022-09-11T03:59:33.855Z,74.10
2022-09-11T04:02:00.494Z,74.10
2022-09-11T04:04:27.138Z,74.10
2022-09-11T04:06:53.723Z,74.10
2022-09-11T04:09:20.393Z,74.10
2022-09-11T04:11:47.013Z,74.10
2022-09-11T04:14:13.715Z,74.30
2022-09-11T04:16:40.752Z,74.20
2022-09-11T04:19:07.708Z,74.10
2022-09-11T04:21:34.849Z,74.20
2022-09-11T04:24:01.595Z,74.30
2022-09-11T04:26:29.681Z,74.20
2022-09-11T04:28:57.219Z,74.20
2022-09-11T04:31:23.878Z,74.00
2022-09-11T04:33:51.765Z,74.20
2022-09-11T04:36:19.724Z,74.20
2022-09-11T04:38:47.051Z,74.20
2022-09-11T04:41:14.722Z,74.20
2022-09-11T04:43:41.722Z,74.80
2022-09-11T04:46:11.125Z,74.30
2022-09-11T04:48:43.099Z,74.20
2022-09-11T04:51:09.795Z,74.20
2022-09-11T04:53:38.068Z,74.20
2022-09-11T04:56:05.993Z,74.30
2022-09-11T04:58:32.906Z,74.30
2022-09-11T05:00:59.588Z,74.30
2022-09-11T05:03:26.379Z,74.70
2022-09-11T05:05:53.042Z,74.10
2022-09-11T05:08:20.233Z,74.10
2022-09-11T05:10:47.469Z,74.20
2022-09-11T05:13:14.750Z,74.20
2022-09-11T05:15:41.393Z,74.20
2022-09-11T05:18:08.000Z,74.20
2022-09-11T05:20:34.660Z,74.20
2022-09-11T05:23:01.304Z,74.30
2022-09-11T05:25:29.494Z,74.20
2022-09-11T05:27:56.092Z,74.20
2022-09-11T05:30:23.513Z,74.20
2022-09-11T05:32:55.040Z,74.40
2022-09-11T05:35:24.363Z,74.20
2022-09-11T05:37:50.992Z,74.30
2022-09-11T05:40:17.942Z,74.20
2022-09-11T05:42:44.726Z,74.20
2022-09-11T05:45:11.351Z,74.20
2022-09-11T05:47:38.106Z,74.30
2022-09-11T05:50:04.846Z,74.30
2022-09-11T05:52:34.922Z,74.20
2022-09-11T05:55:01.642Z,74.20
2022-09-11T05:57:28.253Z,74.20
2022-09-11T05:59:54.863Z,74.20
2022-09-11T06:02:21.613Z,74.20
2022-09-11T06:04:48.320Z,74.20
2022-09-11T06:07:14.974Z,74.20
2022-09-11T06:09:41.614Z,74.20
2022-09-11T06:12:11.831Z,74.10
2022-09-11T06:14:38.689Z,74.10
2022-09-11T06:17:06.468Z,74.10
2022-09-11T06:19:33.349Z,74.20
2022-09-11T06:22:00.007Z,74.30
2022-09-11T06:24:26.854Z,74.30
2022-09-11T06:26:53.625Z,74.30
2022-09-11T06:29:21.090Z,74.30
2022-09-11T06:31:51.209Z,74.40
2022-09-11T06:34:19.774Z,74.30
2022-09-11T06:36:49.907Z,74.40
2022-09-11T06:39:20.431Z,74.30
2022-09-11T06:41:47.058Z,74.30
2022-09-11T06:44:14.702Z,74.20
2022-09-11T06:46:41.739Z,74.40
2022-09-11T06:49:08.452Z,74.50
2022-09-11T06:51:35.985Z,74.30
2022-09-11T06:54:02.586Z,74.40
2022-09-11T06:56:30.463Z,74.40
2022-09-11T06:58:57.129Z,74.30
2022-09-11T07:01:24.336Z,74.30
2022-09-11T07:03:53.135Z,74.40
2022-09-11T07:06:21.423Z,74.30
2022-09-11T07:08:55.877Z,74.30
2022-09-11T07:11:22.622Z,74.30
2022-09-11T07:13:49.307Z,74.30
2022-09-11T07:16:16.457Z,74.30
2022-09-11T07:18:44.650Z,74.30
2022-09-11T07:21:12.843Z,74.20
2022-09-11T07:23:40.419Z,74.20
2022-09-11T07:26:09.541Z,74.30
2022-09-11T07:28:37.762Z,74.10
2022-09-11T07:31:05.617Z,74.00
2022-09-11T07:33:32.727Z,74.50
2022-09-11T07:35:59.426Z,74.60
2022-09-11T07:38:26.119Z,74.40
2022-09-11T07:40:55.829Z,74.50
2022-09-11T07:43:22.504Z,74.50
2022-09-11T07:45:52.310Z,74.40
2022-09-11T07:48:18.985Z,74.50
2022-09-11T07:50:55.147Z,74.50
2022-09-11T07:53:21.739Z,74.40
2022-09-11T07:55:48.438Z,74.50
2022-09-11T07:58:15.046Z,74.40
2022-09-11T08:00:41.669Z,74.40
2022-09-11T08:03:08.525Z,74.50
2022-09-11T08:05:35.189Z,74.40
2022-09-11T08:08:01.934Z,74.40
2022-09-11T08:10:28.545Z,74.30
2022-09-11T08:12:59.379Z,74.30
2022-09-11T08:15:27.181Z,74.30
2022-09-11T08:17:54.369Z,75.20
2022-09-11T08:20:21.692Z,74.30
2022-09-11T08:22:48.392Z,73.70
2022-09-11T08:25:15.070Z,74.40
2022-09-11T08:27:41.695Z,74.30
2022-09-11T08:30:08.778Z,74.20
2022-09-11T08:32:35.537Z,74.10
2022-09-11T08:35:02.202Z,74.00
2022-09-11T08:37:28.995Z,73.90
2022-09-11T08:39:55.642Z,73.90
2022-09-11T08:42:22.289Z,73.90
2022-09-11T08:44:50.717Z,73.90
2022-09-11T08:47:28.515Z,73.80
2022-09-11T08:49:55.106Z,73.80
2022-09-11T08:52:21.759Z,73.90
2022-09-11T08:54:48.533Z,73.90
2022-09-11T08:57:18.102Z,75.50
2022-09-11T08:59:44.723Z,75.50
2022-09-11T09:02:14.500Z,74.00
2022-09-11T09:05:00.379Z,74.00
2022-09-11T09:07:41.998Z,73.90
2022-09-11T09:10:13.889Z,74.30
2022-09-11T09:12:44.304Z,74.00
2022-09-11T09:15:17.226Z,74.10
2022-09-11T09:18:06.178Z,74.00
2022-09-11T09:20:34.652Z,74.10
2022-09-11T09:23:03.890Z,74.10
2022-09-11T09:25:34.461Z,74.10
2022-09-11T09:28:08.546Z,74.10
2022-09-11T09:30:42.740Z,74.10
2022-09-11T09:33:13.399Z,74.30
2022-09-11T09:35:44.351Z,74.30
2022-09-11T09:38:23.842Z,74.20
2022-09-11T09:41:11.594Z,74.20
2022-09-11T09:44:08.645Z,74.30
2022-09-11T09:46:38.042Z,74.30
2022-09-11T09:49:04.784Z,74.40
2022-09-11T09:51:31.475Z,74.40
2022-09-11T09:54:00.526Z,74.40
2022-09-11T09:56:30.442Z,74.40
2022-09-11T09:59:02.568Z,74.60
2022-09-11T10:01:44.128Z,74.50
2022-09-11T10:04:13.698Z,74.50
2022-09-11T10:06:40.539Z,74.50
2022-09-11T10:09:18.006Z,74.40
2022-09-11T10:11:46.716Z,74.40
2022-09-11T10:14:46.982Z,74.40
2022-09-11T10:17:07.143Z,74.40
2022-09-11T10:19:38.980Z,74.50
2022-09-11T10:22:22.445Z,74.40
2022-09-11T10:24:58.866Z,74.60
2022-09-11T10:27:28.840Z,74.50
2022-09-11T10:29:55.763Z,74.60
2022-09-11T10:32:24.619Z,74.50
2022-09-11T10:34:51.843Z,74.50
2022-09-11T10:37:24.074Z,74.50
2022-09-11T10:39:51.262Z,74.50
2022-09-11T10:42:23.424Z,74.50
2022-09-11T10:44:51.280Z,74.50
2022-09-11T10:47:22.079Z,74.60
2022-09-11T10:49:49.163Z,74.50
2022-09-11T10:52:15.960Z,74.60
2022-09-11T10:55:01.496Z,74.50
2022-09-11T10:57:45.042Z,74.50
2022-09-11T11:00:21.086Z,74.50
2022-09-11T11:02:47.678Z,74.50
2022-09-11T11:05:18.149Z,74.40
2022-09-11T11:08:01.063Z,74.50
2022-09-11T11:10:46.580Z,74.60
2022-09-11T11:13:22.729Z,74.50
2022-09-11T11:16:00.945Z,74.50
2022-09-11T11:18:27.599Z,74.40
2022-09-11T11:21:01.905Z,74.40
2022-09-11T11:23:52.192Z,74.50
2022-09-11T11:26:24.857Z,74.40
2022-09-11T11:29:12.090Z,74.30
2022-09-11T11:31:44.364Z,74.30
2022-09-11T11:34:29.274Z,75.60
2022-09-11T11:37:07.973Z,74.30
2022-09-11T11:39:50.174Z,74.20
2022-09-11T11:42:22.956Z,74.10
2022-09-11T11:45:00.509Z,74.20
2022-09-11T11:47:30.678Z,74.20
2022-09-11T11:50:10.114Z,74.20
2022-09-11T11:52:49.638Z,74.20
2022-09-11T11:55:16.976Z,74.20
2022-09-11T11:57:55.778Z,74.20
2022-09-11T12:00:22.496Z,74.20
2022-09-11T12:03:01.559Z,74.20
2022-09-11T12:05:30.825Z,74.20
2022-09-11T12:07:57.802Z,74.20
2022-09-11T12:10:27.235Z,74.20
2022-09-11T12:12:55.869Z,74.30
2022-09-11T12:15:23.996Z,74.30
2022-09-11T12:18:00.912Z,74.40
2022-09-11T12:20:32.322Z,74.40
2022-09-11T12:22:59.409Z,74.50
2022-09-11T12:25:29.800Z,76.40
2022-09-11T12:28:14.922Z,74.50
2022-09-11T12:30:55.748Z,74.60
2022-09-11T12:33:40.779Z,74.60
2022-09-11T12:36:08.640Z,74.60
2022-09-11T12:38:44.923Z,74.60
2022-09-11T12:41:14.101Z,74.70
2022-09-11T12:43:41.377Z,75.20
2022-09-11T12:46:12.687Z,74.70
2022-09-11T12:48:44.111Z,74.80
2022-09-11T12:51:21.270Z,74.70
2022-09-11T12:53:50.361Z,74.70
2022-09-11T12:56:19.363Z,74.90
2022-09-11T12:58:47.779Z,74.90
2022-09-11T13:01:20.412Z,74.80
2022-09-11T13:03:50.146Z,74.80
2022-09-11T13:06:16.898Z,74.80
2022-09-11T13:08:48.687Z,75.00
2022-09-11T13:11:34.074Z,74.90
2022-09-11T13:14:00.862Z,74.90
2022-09-11T13:16:28.969Z,74.80
2022-09-11T13:19:00.504Z,74.90
2022-09-11T13:21:27.121Z,74.90
2022-09-11T13:23:53.842Z,74.90
2022-09-11T13:26:20.443Z,75.00
2022-09-11T13:28:48.078Z,75.00
2022-09-11T13:31:28.998Z,75.00
2022-09-11T13:33:55.661Z,74.90
2022-09-11T13:36:24.179Z,75.00
2022-09-11T13:38:54.481Z,75.00
2022-09-11T13:41:23.751Z,75.00
2022-09-11T13:43:52.140Z,74.90
2022-09-11T13:46:23.072Z,74.90
2022-09-11T13:48:53.140Z,75.00
2022-09-11T13:51:22.854Z,75.00
2022-09-11T13:53:57.000Z,75.00
2022-09-11T13:56:51.403Z,75.00
2022-09-11T13:59:35.418Z,75.00
2022-09-11T14:02:04.911Z,75.00
2022-09-11T14:04:33.157Z,75.00
2022-09-11T14:06:59.870Z,75.00
2022-09-11T14:09:26.515Z,75.00
2022-09-11T14:11:53.140Z,75.00
2022-09-11T14:14:24.142Z,75.00
2022-09-11T14:16:53.135Z,75.10
2022-09-11T14:19:21.698Z,75.00
2022-09-11T14:21:49.348Z,75.00
2022-09-11T14:24:25.202Z,75.10
2022-09-11T14:26:51.807Z,75.10
2022-09-11T14:29:18.986Z,75.20
2022-09-11T14:31:45.600Z,75.00
2022-09-11T14:34:25.351Z,75.00
2022-09-11T14:36:57.878Z,75.20
2022-09-11T14:39:36.841Z,75.10
2022-09-11T14:42:05.691Z,75.10
2022-09-11T14:44:33.916Z,75.10
2022-09-11T14:47:00.643Z,75.10
2022-09-11T14:49:27.490Z,75.10
2022-09-11T14:52:00.686Z,75.10
2022-09-11T14:54:31.176Z,75.10
2022-09-11T14:56:59.167Z,75.10
2022-09-11T14:59:26.164Z,75.10
2022-09-11T15:01:52.823Z,75.20
2022-09-11T15:04:20.506Z,75.10
2022-09-11T15:06:55.436Z,75.20
2022-09-11T15:09:24.962Z,75.20
2022-09-11T15:11:52.405Z,75.30
2022-09-11T15:14:32.624Z,75.30
2022-09-11T15:17:08.319Z,75.30
2022-09-11T15:19:38.386Z,75.30
2022-09-11T15:22:05.600Z,75.30
2022-09-11T15:24:32.453Z,75.20
2022-09-11T15:26:59.154Z,75.30
2022-09-11T15:29:30.771Z,75.30
2022-09-11T15:31:58.647Z,75.30
2022-09-11T15:34:26.147Z,75.30
2022-09-11T15:36:52.812Z,75.30
2022-09-11T15:39:20.202Z,75.30
2022-09-11T15:41:47.222Z,75.20
2022-09-11T15:44:19.959Z,75.20
2022-09-11T15:46:46.986Z,75.30
2022-09-11T15:49:13.623Z,75.20
2022-09-11T15:51:40.269Z,75.20
2022-09-11T15:54:07.174Z,75.20
2022-09-11T15:56:35.863Z,75.80
2022-09-11T15:59:02.729Z,75.20
2022-09-11T16:01:33.881Z,75.30
2022-09-11T16:04:01.999Z,75.20
2022-09-11T16:06:29.981Z,75.00
2022-09-11T16:09:01.361Z,75.00
2022-09-11T16:11:28.482Z,75.30
2022-09-11T16:13:55.094Z,75.30
2022-09-11T16:16:21.748Z,75.30
2022-09-11T16:18:48.674Z,75.30
2022-09-11T16:21:15.774Z,75.30
2022-09-11T16:23:44.160Z,75.40
2022-09-11T16:26:12.127Z,75.40
2022-09-11T16:28:39.578Z,75.40
2022-09-11T16:31:07.162Z,75.40
2022-09-11T16:33:34.823Z,75.50
2022-09-11T16:36:05.126Z,75.40
2022-09-11T16:38:32.560Z,75.60
2022-09-11T16:41:03.440Z,75.50
2022-09-11T16:43:31.535Z,75.60
2022-09-11T16:45:58.317Z,75.50
2022-09-11T16:48:25.621Z,75.50
2022-09-11T16:50:53.382Z,75.50
2022-09-11T16:53:20.683Z,75.50
2022-09-11T16:55:47.461Z,75.60
2022-09-11T16:58:14.213Z,75.50
2022-09-11T17:00:41.157Z,75.60
2022-09-11T17:03:07.834Z,75.60
2022-09-11T17:05:34.561Z,75.70
2022-09-11T17:08:01.178Z,75.70
2022-09-11T17:10:28.106Z,75.80
2022-09-11T17:12:54.947Z,75.80
2022-09-11T17:15:21.718Z,75.80
2022-09-11T17:17:48.326Z,75.90
2022-09-11T17:20:16.221Z,75.80
2022-09-11T17:22:42.884Z,75.80
2022-09-11T17:25:09.504Z,76.00
2022-09-11T17:27:36.402Z,75.80
2022-09-11T17:30:04.759Z,75.90
2022-09-11T17:32:31.501Z,75.90
2022-09-11T17:34:58.621Z,76.00
2022-09-11T17:37:26.424Z,75.90
2022-09-11T17:39:53.702Z,75.90
2022-09-11T17:42:20.337Z,75.90
2022-09-11T17:44:47.931Z,76.00
2022-09-11T17:47:14.656Z,75.80
2022-09-11T17:49:41.280Z,75.70
2022-09-11T17:52:07.907Z,75.70
2022-09-11T17:54:34.772Z,75.60
2022-09-11T17:57:01.451Z,75.70
2022-09-11T17:59:28.198Z,75.60
2022-09-11T18:01:54.859Z,75.70
2022-09-11T18:04:22.553Z,75.70
2022-09-11T18:06:49.740Z,76.70
2022-09-11T18:09:18.060Z,75.80
2022-09-11T18:11:45.870Z,75.80
2022-09-11T18:14:13.922Z,75.80
2022-09-11T18:16:41.006Z,75.90
2022-09-11T18:19:07.754Z,75.90
2022-09-11T18:21:38.136Z,75.90
2022-09-11T18:24:06.382Z,75.90
2022-09-11T18:26:37.095Z,75.90
2022-09-11T18:29:09.879Z,75.80
2022-09-11T18:31:41.125Z,75.80
2022-09-11T18:34:10.465Z,76.00
2022-09-11T18:36:37.121Z,75.90
2022-09-11T18:39:03.985Z,76.00
2022-09-11T18:41:32.498Z,75.90
2022-09-11T18:44:00.376Z,75.90
2022-09-11T18:46:27.421Z,76.00
2022-09-11T18:48:55.968Z,75.90
2022-09-11T18:51:22.663Z,76.00
2022-09-11T18:53:51.955Z,75.90
2022-09-11T18:56:19.751Z,75.80
2022-09-11T18:58:49.162Z,75.80
2022-09-11T19:01:16.950Z,76.40
2022-09-11T19:03:44.267Z,76.40
2022-09-11T19:06:12.557Z,75.80
2022-09-11T19:08:40.387Z,76.60
2022-09-11T19:11:08.032Z,75.80
2022-09-11T19:13:35.031Z,75.80
2022-09-11T19:16:01.950Z,75.80
2022-09-11T19:18:28.586Z,75.80
2022-09-11T19:21:00.319Z,75.80
2022-09-11T19:23:33.989Z,75.80
2022-09-11T19:26:02.882Z,75.80
2022-09-11T19:28:30.846Z,75.80
2022-09-11T19:30:58.360Z,75.80
2022-09-11T19:33:25.495Z,75.90
2022-09-11T19:35:57.425Z,75.80
2022-09-11T19:38:27.142Z,75.80
2022-09-11T19:40:53.860Z,75.80
2022-09-11T19:43:24.941Z,75.80
2022-09-11T19:45:51.642Z,75.80
2022-09-11T19:48:18.481Z,75.80
2022-09-11T19:50:45.479Z,75.80
2022-09-11T19:53:12.134Z,75.70
2022-09-11T19:55:39.039Z,75.70
2022-09-11T19:58:05.795Z,75.70
2022-09-11T20:00:35.309Z,76.00
2022-09-11T20:03:02.087Z,75.80
2022-09-11T20:05:29.000Z,75.70
2022-09-11T20:07:56.541Z,75.80
2022-09-11T20:10:27.738Z,75.70
2022-09-11T20:12:54.554Z,75.80
2022-09-11T20:15:21.169Z,75.80
2022-09-11T20:17:47.861Z,75.80
2022-09-11T20:20:14.562Z,75.80
2022-09-11T20:22:41.223Z,75.80
2022-09-11T20:25:08.374Z,75.60
2022-09-11T20:27:34.986Z,75.80
2022-09-11T20:30:01.609Z,75.70
2022-09-11T20:32:28.222Z,75.70
2022-09-11T20:34:54.813Z,75.70
2022-09-11T20:37:21.438Z,75.70
2022-09-11T20:39:48.109Z,75.70
2022-09-11T20:42:14.757Z,75.70
2022-09-11T20:44:42.451Z,77.30
2022-09-11T20:47:11.674Z,75.50
2022-09-11T20:49:38.287Z,75.50
2022-09-11T20:52:04.916Z,75.50
2022-09-11T20:54:31.574Z,75.50
2022-09-11T20:56:58.222Z,75.40
2022-09-11T20:59:24.826Z,75.40
2022-09-11T21:01:51.464Z,75.40
2022-09-11T21:04:18.163Z,75.40
2022-09-11T21:06:45.406Z,75.40
2022-09-11T21:09:12.102Z,75.50
2022-09-11T21:11:39.830Z,75.60
2022-09-11T21:14:06.657Z,75.40
2022-09-11T21:16:33.370Z,75.40
2022-09-11T21:19:00.833Z,75.40
2022-09-11T21:21:27.965Z,75.40
2022-09-11T21:23:55.555Z,75.40
2022-09-11T21:26:22.279Z,75.50
2022-09-11T21:28:48.927Z,75.40
2022-09-11T21:31:15.563Z,75.40
2022-09-11T21:33:42.210Z,75.30
2022-09-11T21:36:08.990Z,75.40
2022-09-11T21:38:36.233Z,75.40
2022-09-11T21:41:03.863Z,75.40
2022-09-11T21:43:30.506Z,75.30
2022-09-11T21:45:57.141Z,75.30
2022-09-11T21:48:24.079Z,75.40
2022-09-11T21:50:50.763Z,75.40
2022-09-11T21:53:17.503Z,75.40
2022-09-11T21:55:44.661Z,75.40
2022-09-11T21:58:15.875Z,75.40
2022-09-11T22:00:43.483Z,75.30
2022-09-11T22:03:13.680Z,75.20
2022-09-11T22:05:43.276Z,75.30
2022-09-11T22:08:10.685Z,75.20
2022-09-11T22:10:47.574Z,75.40
2022-09-11T22:13:14.409Z,75.40
2022-09-11T22:15:46.405Z,75.20
2022-09-11T22:18:13.568Z,75.30
2022-09-11T22:20:40.865Z,75.40
2022-09-11T22:23:07.896Z,75.30
2022-09-11T22:25:36.818Z,75.40
2022-09-11T22:28:04.263Z,75.20
2022-09-11T22:30:30.906Z,75.20
2022-09-11T22:32:57.529Z,75.20
2022-09-11T22:35:24.147Z,75.10
2022-09-11T22:37:50.775Z,75.20
2022-09-11T22:40:17.392Z,75.20
2022-09-11T22:42:44.588Z,75.00
2022-09-11T22:45:11.680Z,75.00
2022-09-11T22:47:38.290Z,75.20
2022-09-11T22:50:05.153Z,75.10
2022-09-11T22:52:32.082Z,75.00
2022-09-11T22:54:58.695Z,75.00
2022-09-11T22:57:28.975Z,75.20
2022-09-11T22:59:56.112Z,75.00
2022-09-11T23:02:22.861Z,75.20
2022-09-11T23:05:08.346Z,75.00
2022-09-11T23:07:34.989Z,75.00
2022-09-11T23:10:01.870Z,75.00
2022-09-11T23:12:28.575Z,75.00
2022-09-11T23:14:55.612Z,75.10
2022-09-11T23:17:22.237Z,75.10
2022-09-11T23:19:48.877Z,75.10
2022-09-11T23:22:15.496Z,75.00
2022-09-11T23:24:42.129Z,75.10
2022-09-11T23:27:08.747Z,75.10
2022-09-11T23:29:35.374Z,75.10
2022-09-11T23:32:02.108Z,75.10
2022-09-11T23:34:29.050Z,75.20
2022-09-11T23:36:55.695Z,75.00
2022-09-11T23:39:22.318Z,75.20
2022-09-11T23:41:49.496Z,75.10
2022-09-11T23:44:16.127Z,75.10
2022-09-11T23:46:42.918Z,75.10
2022-09-11T23:49:12.353Z,75.10
2022-09-11T23:51:39.126Z,75.10
2022-09-11T23:54:05.788Z,75.10
2022-09-11T23:56:32.424Z,75.10
2022-09-11T23:58:59.044Z,75.10
